Ossining, NY

4:26 AM EDT on August 31, 2014 (GMT -0400)
North Ossining | Change Station
CLOSE
Current Station
Personal Weather Station
Location: Ossining, NY
Elevation: 361 ft
Nearby Weather Stations

Elev 361 ft 41.18 °N, 73.86 °W | Updated 1 second ago

Overcast
Overcast
70.3 °F
Feels Like 70.3 °F
N
0.0
Wind Variable Wind from North
Gusts 0.0 mph

Today
High -- | Low -- °F
--% Chance of Precip.
Yesterday
High -- | Low -- °F
Precip. -- in
6:20 AM 7:29 PM
Waxing Crescent, 29% visible
Pressure 30.12 in
Visibility 10.0 miles
Clouds Mostly Cloudy 3000 ft
Dew Point 66 °F
Humidity 86%
Rainfall 0.00 in
Snow Depth Not available.
UV 0 out of 12
Pollen 8.90 out of 12
Ozone Good
PM2.5 Good
Flu Activity Not available.
METAR KHPN 310756Z 00000KT 10SM BKN030 22/18 A3013 RMK AO2 SLP197 T02170183

More Conditions Fewer Conditions

Pressure 30.12 in
Visibility 10.0 miles
Clouds Mostly Cloudy 3000 ft
Dew Point 66 °F
Humidity 86%
Rainfall 0.00 in
Snow Depth Not available.
UV 0 out of 12
Pollen 8.90 out of 12
Ozone Good
PM2.5 Good
Flu Activity Not available.
METAR KHPN 310756Z 00000KT 10SM BKN030 22/18 A3013 RMK AO2 SLP197 T02170183

More Conditions Fewer Conditions

10-Day Weather Forecast

Almanac

Astronomy

Aug. 31, 2014 Rise Set
Actual Time 6:20 AM EDT 7:29 PM EDT
Civil Twilight 5:52 AM EDT 7:58 PM EDT
Nautical Twilight 5:18 AM EDT 8:31 PM EDT
Astronomical Twilight 4:42 AM EDT 9:07 PM EDT
Moon 12:08 PM EDT 10:39 PM EDT
Length of Visible Light 14h 05m
Length of Day
13h 08m
Tomorrow will be 2m 38s shorter.
Waxing Crescent, 29% of the Moon is Illuminated
Today
Waxing Crescent
Sep 2
First Quarter
Sep 8
Full
Sep 15
Last Quarter
Sep 24
New

Today's Extremes

State Highs State Lows

Community

WunderPhotos

Upload Photos

1,748,820 photos uploaded!

Nearby

Air Quality

  Air Quality AQ Index Pollutant
Yesterday Good
OZONE
Yesterday Good
PM2.5
Current Good
PM2.5
Current Good
OZONE
Sunday Moderate
PM2.5
Sunday Moderate
OZONE
Monday Moderate
PM2.5
Monday Moderate
OZONE
Tuesday Moderate
OZONE
Tuesday Moderate
PM2.5

Snow Depth

Station Depth Elevation
No new snow has been reported.

Earthquake Activity

City Distance Mag. Time & Date
No recent earthquake activity has been reported nearby.
Minimum magnitude displayed is 2.5.

Coastal Water Temperatures

Place Temperature
Bridgeport, CT 73.9 °F

Nearby Weather Stations